< < Back
Terminal Aerodrome Forecast


Current Version              Previous Versions:   1  2  3  4  5  6  7  8  9  

Terminal Aerodrome Forecast

052
FTUS44 KMRX 311125
TAFCHA
TAF
KCHA 311125Z 3112/0112 36005KT P6SM SCT200
     FM311400 03003KT P6SM BKN150
     FM010800 16004KT P6SM BKN100=

Latest METAR

306
SAUS80 KWBC 311600
MTRCHA
METAR KCHA 311553Z 36003KT 10SM SCT170 BKN210 04/M07 A3042 RMK AO2
SLP305 T00391072


USA.gov is the U.S. government's official web portal to all federal, state and local government web resources and services.